NOZ3747 ENZV-ENBR
Flight info
| Callsign | NOZ3747 |
|---|---|
| Flight time | 0h 24m |
| Altitude | 14000 |
| Route | ALUVA |
| Aircraft | B738/M-SDE2E3FGHIRWXY/LB1 |
Departure
| Time | 2026-04-24 19:56 |
|---|---|
| Airport | Stavanger Airport, Sola (ENZV) |
Arrival
| Time | 2026-04-24 20:20 |
|---|---|
| Airport | Bergen Airport, Flesland (ENBR) |
| Time | Latitude | Longitude | Altitude | Speed | Heading |
|---|---|---|---|---|---|
| 2026-04-24 19:37 | 58.88127 | 5.63026 | 24 ft | 0 kts | 315° |
| 2026-04-24 19:49 | 58.88106 | 5.63066 | 29 ft | 2 kts | 315° |
| 2026-04-24 19:50 | 58.88093 | 5.63090 | 29 ft | 0 kts | 315° |
| 2026-04-24 19:52 | 58.88095 | 5.63074 | 28 ft | 4 kts | 271° |
| 2026-04-24 19:52 | 58.88068 | 5.63100 | 28 ft | 9 kts | 116° |
| 2026-04-24 19:52 | 58.88026 | 5.63251 | 28 ft | 16 kts | 130° |
| 2026-04-24 19:53 | 58.87925 | 5.63354 | 31 ft | 19 kts | 198° |
| 2026-04-24 19:53 | 58.87770 | 5.63286 | 30 ft | 26 kts | 182° |
| 2026-04-24 19:53 | 58.87366 | 5.63302 | 31 ft | 32 kts | 180° |
| 2026-04-24 19:54 | 58.87138 | 5.63310 | 31 ft | 34 kts | 180° |
| 2026-04-24 19:54 | 58.87000 | 5.63500 | 32 ft | 27 kts | 78° |
| 2026-04-24 19:54 | 58.87090 | 5.63815 | 34 ft | 28 kts | 49° |
| 2026-04-24 19:54 | 58.87226 | 5.64086 | 37 ft | 28 kts | 42° |
| 2026-04-24 19:55 | 58.87323 | 5.64259 | 37 ft | 29 kts | 42° |
| 2026-04-24 19:55 | 58.87517 | 5.64506 | 32 ft | 21 kts | 17° |
| 2026-04-24 19:55 | 58.87578 | 5.64437 | 34 ft | 11 kts | 285° |
| 2026-04-24 19:55 | 58.87628 | 5.64118 | 32 ft | 57 kts | 287° |
| 2026-04-24 19:56 | 58.87831 | 5.62796 | 28 ft | 145 kts | 287° |
| 2026-04-24 19:56 | 58.88163 | 5.60605 | 550 ft | 179 kts | 289° |
| 2026-04-24 19:56 | 58.88507 | 5.58364 | 1824 ft | 174 kts | 293° |
| 2026-04-24 19:56 | 58.88874 | 5.55965 | 2296 ft | 199 kts | 292° |
| 2026-04-24 19:57 | 58.89279 | 5.53271 | 2700 ft | 215 kts | 292° |
| 2026-04-24 19:57 | 58.89700 | 5.50454 | 3349 ft | 222 kts | 291° |
| 2026-04-24 19:57 | 58.90140 | 5.47516 | 3962 ft | 231 kts | 291° |
| 2026-04-24 19:57 | 58.90593 | 5.44497 | 4839 ft | 234 kts | 291° |
| 2026-04-24 19:58 | 58.91044 | 5.41481 | 5841 ft | 232 kts | 290° |
| 2026-04-24 19:58 | 58.91536 | 5.38496 | 6745 ft | 232 kts | 298° |
| 2026-04-24 19:58 | 58.92448 | 5.35960 | 7474 ft | 237 kts | 314° |
| 2026-04-24 19:58 | 58.93646 | 5.33735 | 8264 ft | 243 kts | 317° |
| 2026-04-24 19:59 | 58.94918 | 5.31542 | 9139 ft | 245 kts | 317° |
| 2026-04-24 19:59 | 58.96200 | 5.29341 | 10021 ft | 247 kts | 316° |
| 2026-04-24 19:59 | 58.97504 | 5.27085 | 10622 ft | 259 kts | 316° |
| 2026-04-24 19:59 | 58.98896 | 5.24653 | 10807 ft | 285 kts | 316° |
| 2026-04-24 20:00 | 59.00428 | 5.21961 | 10994 ft | 309 kts | 316° |
| 2026-04-24 20:00 | 59.02062 | 5.19079 | 11338 ft | 324 kts | 316° |
| 2026-04-24 20:00 | 59.03752 | 5.16093 | 12005 ft | 330 kts | 315° |
| 2026-04-24 20:00 | 59.05454 | 5.13078 | 12789 ft | 333 kts | 315° |
| 2026-04-24 20:01 | 59.07173 | 5.10025 | 13573 ft | 335 kts | 315° |
| 2026-04-24 20:01 | 59.08906 | 5.06939 | 14270 ft | 339 kts | 315° |
| 2026-04-24 20:01 | 59.10720 | 5.03889 | 14757 ft | 350 kts | 322° |
| 2026-04-24 20:01 | 59.12893 | 5.01746 | 15141 ft | 362 kts | 336° |
| 2026-04-24 20:02 | 59.14601 | 5.01028 | 15156 ft | 379 kts | 347° |
| 2026-04-24 20:02 | 59.18132 | 5.00393 | 15151 ft | 384 kts | 349° |
| 2026-04-24 20:02 | 59.20767 | 5.00000 | 14813 ft | 376 kts | 349° |
| 2026-04-24 20:02 | 59.23334 | 4.99614 | 14671 ft | 360 kts | 349° |
| 2026-04-24 20:03 | 59.25778 | 4.99228 | 14575 ft | 345 kts | 348° |
| 2026-04-24 20:03 | 59.28141 | 4.98834 | 13903 ft | 343 kts | 348° |
| 2026-04-24 20:03 | 59.30578 | 4.98393 | 12461 ft | 365 kts | 349° |
| 2026-04-24 20:03 | 59.33159 | 4.97930 | 11299 ft | 377 kts | 350° |
| 2026-04-24 20:04 | 59.35726 | 4.97490 | 11147 ft | 359 kts | 350° |
| 2026-04-24 20:04 | 59.38163 | 4.97077 | 11016 ft | 342 kts | 350° |
| 2026-04-24 20:04 | 59.40489 | 4.96685 | 10919 ft | 327 kts | 350° |
| 2026-04-24 20:04 | 59.42689 | 4.96332 | 10695 ft | 317 kts | 350° |
| 2026-04-24 20:05 | 59.44868 | 4.95984 | 10456 ft | 312 kts | 350° |
| 2026-04-24 20:05 | 59.47035 | 4.95635 | 10215 ft | 309 kts | 350° |
| 2026-04-24 20:05 | 59.49184 | 4.95285 | 9974 ft | 311 kts | 350° |
| 2026-04-24 20:05 | 59.51328 | 4.94938 | 9696 ft | 305 kts | 350° |
| 2026-04-24 20:06 | 59.53420 | 4.94602 | 9423 ft | 298 kts | 350° |
| 2026-04-24 20:06 | 59.55470 | 4.94272 | 9148 ft | 291 kts | 351° |
| 2026-04-24 20:06 | 59.57445 | 4.93952 | 8883 ft | 286 kts | 351° |
| 2026-04-24 20:06 | 59.59441 | 4.93626 | 8633 ft | 289 kts | 351° |
| 2026-04-24 20:07 | 59.60770 | 4.93409 | 8461 ft | 289 kts | 351° |
| 2026-04-24 20:07 | 59.63446 | 4.93756 | 8094 ft | 291 kts | 10° |
| 2026-04-24 20:07 | 59.65336 | 4.95166 | 7845 ft | 288 kts | 17° |
| 2026-04-24 20:07 | 59.67161 | 4.96751 | 7595 ft | 284 kts | 18° |
| 2026-04-24 20:08 | 59.68927 | 4.98309 | 7338 ft | 279 kts | 18° |
| 2026-04-24 20:08 | 59.70692 | 4.99859 | 7082 ft | 275 kts | 18° |
| 2026-04-24 20:08 | 59.72432 | 5.01374 | 6837 ft | 270 kts | 18° |
| 2026-04-24 20:08 | 59.74144 | 5.02858 | 6589 ft | 266 kts | 18° |
| 2026-04-24 20:09 | 59.75796 | 5.04289 | 6667 ft | 249 kts | 18° |
| 2026-04-24 20:09 | 59.77393 | 5.05666 | 6355 ft | 249 kts | 18° |
| 2026-04-24 20:09 | 59.78958 | 5.07011 | 6103 ft | 246 kts | 18° |
| 2026-04-24 20:09 | 59.80522 | 5.08355 | 5841 ft | 244 kts | 18° |
| 2026-04-24 20:10 | 59.82076 | 5.09692 | 5570 ft | 241 kts | 19° |
| 2026-04-24 20:10 | 59.83607 | 5.11010 | 5321 ft | 239 kts | 19° |
| 2026-04-24 20:10 | 59.85106 | 5.12304 | 5347 ft | 231 kts | 19° |
| 2026-04-24 20:10 | 59.86578 | 5.13576 | 5369 ft | 233 kts | 19° |
| 2026-04-24 20:11 | 59.88086 | 5.14876 | 5378 ft | 239 kts | 19° |
| 2026-04-24 20:11 | 59.89623 | 5.16204 | 5384 ft | 241 kts | 19° |
| 2026-04-24 20:11 | 59.91146 | 5.17481 | 5369 ft | 239 kts | 15° |
| 2026-04-24 20:11 | 59.92751 | 5.18436 | 5150 ft | 238 kts | 11° |
| 2026-04-24 20:12 | 59.94290 | 5.19228 | 5076 ft | 219 kts | 11° |
| 2026-04-24 20:12 | 59.95704 | 5.19949 | 4937 ft | 200 kts | 11° |
| 2026-04-24 20:12 | 59.97001 | 5.20618 | 4781 ft | 184 kts | 11° |
| 2026-04-24 20:12 | 59.98172 | 5.21228 | 4646 ft | 168 kts | 11° |
| 2026-04-24 20:13 | 59.99246 | 5.21791 | 4639 ft | 156 kts | 10° |
| 2026-04-24 20:13 | 60.00319 | 5.22350 | 4642 ft | 165 kts | 10° |
| 2026-04-24 20:13 | 60.01445 | 5.22941 | 4571 ft | 168 kts | 11° |
| 2026-04-24 20:13 | 60.02574 | 5.23539 | 4494 ft | 167 kts | 11° |
| 2026-04-24 20:14 | 60.03603 | 5.24087 | 4423 ft | 166 kts | 11° |
| 2026-04-24 20:14 | 60.04718 | 5.24683 | 4354 ft | 165 kts | 11° |
| 2026-04-24 20:14 | 60.05828 | 5.25278 | 4268 ft | 166 kts | 11° |
| 2026-04-24 20:14 | 60.06967 | 5.25888 | 4100 ft | 170 kts | 11° |
| 2026-04-24 20:15 | 60.08113 | 5.26505 | 3905 ft | 169 kts | 11° |
| 2026-04-24 20:15 | 60.09225 | 5.27105 | 3700 ft | 165 kts | 11° |
| 2026-04-24 20:15 | 60.10322 | 5.27697 | 3519 ft | 160 kts | 11° |
| 2026-04-24 20:15 | 60.11398 | 5.27782 | 3312 ft | 152 kts | 346° |
| 2026-04-24 20:16 | 60.12450 | 5.27432 | 3151 ft | 154 kts | 351° |
| 2026-04-24 20:16 | 60.13519 | 5.27132 | 2974 ft | 154 kts | 350° |
| 2026-04-24 20:16 | 60.14564 | 5.26801 | 2789 ft | 153 kts | 349° |
| 2026-04-24 20:16 | 60.15613 | 5.26454 | 2611 ft | 152 kts | 349° |
| 2026-04-24 20:17 | 60.16652 | 5.26105 | 2415 ft | 148 kts | 348° |
| 2026-04-24 20:17 | 60.18563 | 5.25459 | 2046 ft | 135 kts | 348° |
| 2026-04-24 20:17 | 60.19500 | 5.25142 | 1874 ft | 137 kts | 348° |
| 2026-04-24 20:18 | 60.20121 | 5.24931 | 1758 ft | 137 kts | 348° |
| 2026-04-24 20:18 | 60.21385 | 5.24504 | 1513 ft | 138 kts | 348° |
| 2026-04-24 20:18 | 60.22327 | 5.24186 | 1361 ft | 139 kts | 348° |
| 2026-04-24 20:18 | 60.23283 | 5.23861 | 1209 ft | 140 kts | 348° |
| 2026-04-24 20:19 | 60.24247 | 5.23516 | 1091 ft | 140 kts | 347° |
| 2026-04-24 20:19 | 60.25225 | 5.23202 | 881 ft | 145 kts | 349° |
| 2026-04-24 20:19 | 60.26235 | 5.22858 | 634 ft | 148 kts | 348° |
| 2026-04-24 20:19 | 60.27241 | 5.22547 | 398 ft | 145 kts | 349° |
| 2026-04-24 20:20 | 60.28205 | 5.22188 | 208 ft | 136 kts | 350° |
| 2026-04-24 20:20 | 60.29042 | 5.21913 | 161 ft | 97 kts | 352° |
| 2026-04-24 20:20 | 60.29386 | 5.21802 | 153 ft | 54 kts | 351° |
| 2026-04-24 20:20 | 60.29572 | 5.21740 | 147 ft | 14 kts | 351° |
| 2026-04-24 20:21 | 60.29703 | 5.21738 | 145 ft | 17 kts | 38° |
| 2026-04-24 20:21 | 60.29719 | 5.21868 | 148 ft | 0 kts | 83° |
| 2026-04-24 20:22 | 60.29722 | 5.21936 | 147 ft | 11 kts | 88° |
| 2026-04-24 20:22 | 60.29651 | 5.22034 | 150 ft | 17 kts | 171° |
| 2026-04-24 20:23 | 60.29509 | 5.22080 | 155 ft | 24 kts | 169° |
| 2026-04-24 20:23 | 60.29351 | 5.22136 | 161 ft | 23 kts | 172° |
| 2026-04-24 20:23 | 60.29197 | 5.22187 | 169 ft | 22 kts | 170° |
| 2026-04-24 20:23 | 60.29049 | 5.22240 | 174 ft | 22 kts | 170° |
| 2026-04-24 20:24 | 60.28878 | 5.22292 | 170 ft | 27 kts | 171° |
| 2026-04-24 20:24 | 60.28712 | 5.22359 | 168 ft | 15 kts | 155° |
| 2026-04-24 20:24 | 60.28711 | 5.22522 | 173 ft | 13 kts | 73° |
| 2026-04-24 20:24 | 60.28728 | 5.22697 | 173 ft | 13 kts | 65° |
| 2026-04-24 20:25 | 60.28776 | 5.22834 | 174 ft | 12 kts | 78° |
| 2026-04-24 20:25 | 60.28781 | 5.22890 | 175 ft | 0 kts | 81° |